Date,TemperatureHighF,TemperatureAvgF,TemperatureLowF,DewpointHighF,DewpointAvgF,DewpointLowF,HumidityHigh,HumidityAvg,HumidityLow,PressureMaxIn,PressureMinIn,WindSpeedMaxMPH,WindSpeedAvgMPH,GustSpeedMaxMPH,PrecipitationSumIn
2013-3-1,30,28,27,25,23,21,84,81,79,30.08,29.96,14,12,0,0.00
2013-3-2,30,27,23,24,21,18,86,79,75,30.07,30.04,15,9,0,0.00
2013-3-3,28,26,22,20,17,15,83,69,60,30.04,30.00,15,10,0,0.00
2013-3-4,41,28,21,23,17,13,80,64,32,30.15,30.15,11,6,0,0.00
2013-3-5,32,26,24,26,21,20,85,80,71,0.00,40.00,17,12,0,0.00
2013-3-6,39,33,29,31,28,24,90,81,70,30.22,29.98,14,8,0,0.00
2013-3-7,33,32,31,31,28,23,95,85,73,30.41,30.22,7,5,0,0.00
2013-3-8,37,32,25,31,26,20,87,80,69,30.51,30.42,9,5,0,0.00
2013-3-9,41,35,28,31,29,26,93,78,64,30.46,30.14,16,6,0,0.00
2013-3-10,59,50,41,42,36,31,67,58,49,30.08,29.88,16,7,0,0.00
2013-3-11,52,49,44,46,42,34,92,78,58,29.83,29.51,13,7,0,0.00
2013-3-12,39,36,33,32,30,28,85,75,68,29.88,29.70,17,7,0,0.00
2013-3-13,31,23,18,27,15,6,86,71,58,30.02,29.80,21,15,0,0.00
2013-3-14,30,23,14,23,10,1,75,58,43,30.24,29.97,28,9,0,0.00
2013-3-15,30,24,13,27,14,-2,89,65,48,30.06,29.86,24,20,0,0.00
2013-3-16,19,13,10,1,-1,-4,63,52,45,30.21,29.98,17,9,0,0.00
2013-3-17,15,6,-1,4,-4,-10,73,62,43,30.39,30.14,9,6,0,0.00
2013-3-18,29,26,14,28,21,9,97,82,68,30.06,29.53,11,8,0,0.00
2013-3-19,29,25,17,28,19,8,94,78,63,29.88,29.44,29,14,0,0.00
2013-3-20,23,17,11,11,7,3,68,62,56,30.08,29.90,14,10,0,0.00
2013-3-21,28,21,16,16,10,6,66,61,55,30.09,30.03,11,3,0,0.00
2013-3-22,31,26,22,22,18,16,76,69,64,30.17,30.08,10,4,0,0.00
2013-3-23,33,28,24,25,20,17,79,72,68,30.22,30.16,14,8,0,0.00
2013-3-24,33,29,23,26,22,18,81,75,58,30.13,29.91,16,12,0,0.00
2013-3-25,35,32,28,29,25,21,79,76,67,30.01,29.93,21,12,0,0.00
2013-3-26,38,34,33,30,29,25,85,79,72,30.12,30.03,22,14,0,0.00
2013-3-27,37,35,33,30,27,23,85,73,63,30.19,30.09,16,11,0,0.00
2013-3-28,38,34,33,30,27,24,89,76,56,30.28,30.19,16,9,0,0.00
2013-3-29,38,33,31,32,28,25,95,82,59,30.30,30.22,7,4,0,0.00
2013-3-30,46,37,30,33,23,-100,96,70,34,30.19,29.85,10,3,0,0.00
2013-3-31,36,35,32,36,34,24,99,94,71,29.76,29.56,23,5,0,0.00